Terminal Aerodrome Forecast
Issued by NWS Charleston, WV

Home | Current Version | Previous Version | Text Only | Print | Product List | Glossary On
Versions: 1 2 3 4 5 6 7 8 9 10 11 12 13 14 15 16 17 18 19 20 21 22
870
FTUS41 KRLX 041738
TAFHTS
TAF
KHTS 041738Z 0418/0518 09005KT P6SM SCT050 BKN100
     FM042200 12004KT P6SM OVC035
     FM050100 VRB03KT P6SM -RA OVC025
     FM050300 18004KT 5SM -RA BR OVC015
     FM050700 24005KT P6SM SCT006 OVC012
     FM051400 00000KT P6SM BKN020=

USA.gov is the U.S. government's official web portal to all federal, state and local government web resources and services.